Time;durP1;ratioP1;P1;durP2;ratioP2;P2;SDS_P1;SDS_P2;PMS_P1;PMS_P2;Temp;Humidity;BMP_temperature;BMP_pressure;BME280_temperature;BME280_humidity;BME280_pressure;Samples;Min_cycle;Max_cycle;Signal;HPM_P1;HPM_P2
2021/11/02 00:01:19;;;;;;;;;;;13.60;99.90;;;;;;4997903;28;1074;-57
2021/11/02 00:03:45;;;;;;;;;;;13.70;99.90;;;;;;4998197;28;777;-57
2021/11/02 00:06:11;;;;;;;;;;;13.60;99.90;;;;;;4998297;28;855;-57
2021/11/02 00:08:37;;;;;;;;;;;13.60;99.90;;;;;;4998178;28;782;-57
2021/11/02 00:11:03;;;;;;;;;;;13.60;99.90;;;;;;4998009;28;891;-57
2021/11/02 00:13:32;;;;;;;;;;;13.70;99.90;;;;;;4997911;28;949;-57
2021/11/02 00:16:00;;;;;;;;;;;13.60;99.90;;;;;;4997533;28;1910;-57
2021/11/02 00:18:26;;;;;;;;;;;13.60;99.90;;;;;;4998258;28;914;-57
2021/11/02 00:20:59;;;;;;;;;;;13.60;99.90;;;;;;4998121;28;834;-57
2021/11/02 00:23:25;;;;;;;;;;;13.60;99.90;;;;;;4997462;28;945;-57
2021/11/02 00:25:51;;;;;;;;;;;13.60;99.90;;;;;;4997621;28;1039;-57
2021/11/02 00:28:17;;;;;;;;;;;13.60;99.90;;;;;;4997538;28;900;-57
2021/11/02 00:30:43;;;;;;;;;;;13.60;99.90;;;;;;4997561;28;1145;-57
2021/11/02 00:33:09;;;;;;;;;;;13.60;99.90;;;;;;4997601;28;877;-57
2021/11/02 00:35:36;;;;;;;;;;;13.60;99.90;;;;;;4997522;28;1906;-57
2021/11/02 00:38:02;;;;;;;;;;;13.60;99.90;;;;;;4997398;28;1053;-57
2021/11/02 00:40:28;;;;;;;;;;;13.70;99.90;;;;;;4997665;28;826;-57
2021/11/02 00:43:04;;;;;;;;;;;13.60;99.90;;;;;;4997179;28;846;-57
2021/11/02 00:45:41;;;;;;;;;;;13.60;99.90;;;;;;4994922;28;1012;-57
2021/11/02 00:48:08;;;;;;;;;;;13.60;99.90;;;;;;4995540;28;790;-57
2021/11/02 00:50:36;;;;;;;;;;;13.60;99.90;;;;;;4994772;28;1083;-57
2021/11/02 00:53:03;;;;;;;;;;;13.60;99.90;;;;;;4995566;28;1193;-57
2021/11/02 00:55:29;;;;;;;;;;;13.60;99.90;;;;;;4997015;28;1902;-57
2021/11/02 00:57:56;;;;;;;;;;;13.60;99.90;;;;;;4996650;28;956;-57
2021/11/02 01:00:24;;;;;;;;;;;13.60;99.90;;;;;;5001085;28;1117;-57
2021/11/02 01:02:50;;;;;;;;;;;13.60;99.90;;;;;;5015355;28;1010;-57
2021/11/02 01:05:17;;;;;;;;;;;13.60;99.90;;;;;;5015777;28;829;-57
2021/11/02 01:07:43;;;;;;;;;;;13.60;99.90;;;;;;5015768;28;852;-57
2021/11/02 01:10:16;;;;;;;;;;;13.60;99.90;;;;;;5015594;28;854;-57
2021/11/02 01:12:44;;;;;;;;;;;13.60;99.90;;;;;;5015024;28;916;-57
2021/11/02 01:15:10;;;;;;;;;;;13.60;99.90;;;;;;5015588;28;1911;-57
2021/11/02 01:17:36;;;;;;;;;;;13.60;99.90;;;;;;5011247;28;759;-57
2021/11/02 01:20:07;;;;;;;;;;;13.60;99.90;;;;;;5014174;28;871;-57
2021/11/02 01:22:33;;;;;;;;;;;13.60;99.90;;;;;;5015480;28;894;-57
2021/11/02 01:24:59;;;;;;;;;;;13.60;99.90;;;;;;5015368;28;974;-57
2021/11/02 01:27:25;;;;;;;;;;;13.60;99.90;;;;;;5003257;28;1169;-57
2021/11/02 01:29:51;;;;;;;;;;;13.60;99.90;;;;;;5002158;28;920;-57
2021/11/02 01:32:18;;;;;;;;;;;13.60;99.90;;;;;;5011220;28;1177;-57
2021/11/02 01:34:44;;;;;;;;;;;13.60;99.90;;;;;;5013910;28;879;-57
2021/11/02 01:37:10;;;;;;;;;;;13.60;99.90;;;;;;5015254;28;1961;-57
2021/11/02 01:39:36;;;;;;;;;;;13.60;99.90;;;;;;5015212;28;817;-57
2021/11/02 01:42:02;;;;;;;;;;;13.60;99.90;;;;;;5015195;28;901;-57
2021/11/02 01:44:29;;;;;;;;;;;13.60;99.90;;;;;;5015305;28;1099;-57
2021/11/02 01:46:56;;;;;;;;;;;13.60;99.90;;;;;;5016037;28;865;-57
2021/11/02 01:49:22;;;;;;;;;;;13.60;99.90;;;;;;5016043;28;1041;-57
2021/11/02 01:51:48;;;;;;;;;;;13.60;99.90;;;;;;5015380;28;850;-57
2021/11/02 01:54:14;;;;;;;;;;;13.60;99.90;;;;;;5015238;28;875;-57
2021/11/02 01:56:46;;;;;;;;;;;13.60;99.90;;;;;;5014791;28;1969;-57
2021/11/02 01:59:13;;;;;;;;;;;13.60;99.90;;;;;;5015082;28;1073;-57
2021/11/02 02:01:47;;;;;;;;;;;13.50;99.90;;;;;;4997220;28;1227;-57
2021/11/02 02:04:20;;;;;;;;;;;13.60;99.90;;;;;;5000552;28;1140;-57
2021/11/02 02:06:52;;;;;;;;;;;13.60;99.90;;;;;;5000405;28;892;-57
2021/11/02 02:09:23;;;;;;;;;;;13.60;99.90;;;;;;4999987;28;882;-57
2021/11/02 02:12:08;;;;;;;;;;;13.60;99.90;;;;;;5000378;28;939;-57
2021/11/02 02:14:52;;;;;;;;;;;13.60;99.90;;;;;;5000278;28;829;-57
2021/11/02 02:17:20;;;;;;;;;;;13.60;99.90;;;;;;5000091;28;1903;-57
2021/11/02 02:19:56;;;;;;;;;;;13.60;99.90;;;;;;5000303;28;807;-57
2021/11/02 02:22:41;;;;;;;;;;;13.60;99.90;;;;;;4983776;28;1397;-57
2021/11/02 02:25:13;;;;;;;;;;;13.60;99.90;;;;;;4995532;28;810;-57
2021/11/02 02:27:45;;;;;;;;;;;13.50;99.90;;;;;;4997531;28;987;-57
2021/11/02 02:30:12;;;;;;;;;;;13.60;99.90;;;;;;4999949;28;1113;-57
2021/11/02 02:32:42;;;;;;;;;;;13.60;99.90;;;;;;4997651;28;1305;-57
2021/11/02 02:35:11;;;;;;;;;;;13.60;99.90;;;;;;4996425;28;1975;-57
2021/11/02 02:37:39;;;;;;;;;;;13.60;99.90;;;;;;4996180;28;1034;-57
2021/11/02 02:40:06;;;;;;;;;;;13.50;99.90;;;;;;4999729;28;887;-57
2021/11/02 02:42:34;;;;;;;;;;;13.50;99.90;;;;;;4997891;28;1360;-57
2021/11/02 02:45:01;;;;;;;;;;;13.50;99.90;;;;;;4999058;28;889;-57
2021/11/02 02:47:28;;;;;;;;;;;13.60;99.90;;;;;;4999655;28;825;-57
2021/11/02 02:49:55;;;;;;;;;;;13.50;99.90;;;;;;4999363;28;1050;-57
2021/11/02 02:52:22;;;;;;;;;;;13.60;99.90;;;;;;4999772;28;794;-57
2021/11/02 02:54:49;;;;;;;;;;;13.50;99.90;;;;;;4999240;28;776;-57
2021/11/02 02:57:19;;;;;;;;;;;13.50;99.90;;;;;;4999089;28;1961;-57
2021/11/02 02:59:45;;;;;;;;;;;13.50;99.90;;;;;;4999155;28;885;-57
2021/11/02 03:02:14;;;;;;;;;;;13.50;99.90;;;;;;4999190;28;1126;-57
2021/11/02 03:04:42;;;;;;;;;;;13.60;99.90;;;;;;4999111;28;838;-57
2021/11/02 03:07:07;;;;;;;;;;;13.50;99.90;;;;;;4999273;28;937;-57
2021/11/02 03:09:34;;;;;;;;;;;13.50;99.90;;;;;;4999249;28;991;-57
2021/11/02 03:12:01;;;;;;;;;;;13.50;99.90;;;;;;4998754;28;854;-57
2021/11/02 03:14:33;;;;;;;;;;;13.60;99.90;;;;;;4999092;28;861;-57
2021/11/02 03:17:12;;;;;;;;;;;13.50;99.90;;;;;;4998907;28;1906;-57
2021/11/02 03:50:17;;;;;;;;;;;13.60;99.90;;;;;;4998633;28;772;-57
2021/11/02 03:56:03;;;;;;;;;;;13.50;99.90;;;;;;4998179;28;1906;-57
2021/11/02 03:58:30;;;;;;;;;;;13.50;99.90;;;;;;4995127;28;1082;-57
2021/11/02 04:01:23;;;;;;;;;;;13.50;99.90;;;;;;4981559;28;1376;-57
2021/11/02 04:30:54;;;;;;;;;;;13.50;99.90;;;;;;4988654;28;901;-57
2021/11/02 04:33:59;;;;;;;;;;;13.50;99.90;;;;;;4997551;28;855;-57
2021/11/02 04:45:10;;;;;;;;;;;13.40;99.90;;;;;;4993596;28;790;-57
2021/11/02 05:57:54;;;;;;;;;;;13.30;99.90;;;;;;4996245;28;1902;-57
2021/11/02 06:00:32;;;;;;;;;;;13.30;99.90;;;;;;4996461;28;1164;-57
2021/11/02 06:03:26;;;;;;;;;;;13.30;99.90;;;;;;4996438;28;775;-57
2021/11/02 06:08:38;;;;;;;;;;;13.20;99.90;;;;;;4995050;28;767;-57
2021/11/02 06:28:18;;;;;;;;;;;13.20;99.90;;;;;;4992623;28;885;-57
2021/11/02 06:30:59;;;;;;;;;;;13.20;99.90;;;;;;4992725;28;959;-57
2021/11/02 07:17:09;;;;;;;;;;;13.70;99.90;;;;;;4999313;28;1915;-57
2021/11/02 07:19:41;;;;;;;;;;;13.60;99.90;;;;;;4984864;28;883;-57
2021/11/02 07:22:27;;;;;;;;;;;13.70;99.90;;;;;;4999445;28;851;-57
2021/11/02 07:28:29;;;;;;;;;;;13.50;99.90;;;;;;4998922;28;986;-57
2021/11/02 08:48:06;;;;;;;;;;;13.70;99.90;;;;;;4997454;28;818;-57
2021/11/02 08:50:41;;;;;;;;;;;13.70;99.90;;;;;;4997302;28;759;-57
2021/11/02 08:53:10;;;;;;;;;;;13.60;99.90;;;;;;4981927;28;985;-58
2021/11/02 08:55:36;;;;;;;;;;;13.60;99.90;;;;;;4997030;28;767;-57
2021/11/02 08:58:02;;;;;;;;;;;13.60;99.90;;;;;;4997134;28;1902;-57
2021/11/02 09:00:29;;;;;;;;;;;13.60;99.90;;;;;;4996926;28;1294;-57
2021/11/02 09:03:22;;;;;;;;;;;13.60;99.90;;;;;;4997074;28;871;-57
2021/11/02 09:05:50;;;;;;;;;;;13.60;99.90;;;;;;4994064;28;1175;-57
2021/11/02 09:08:16;;;;;;;;;;;13.60;99.90;;;;;;4996752;28;929;-57
2021/11/02 09:10:43;;;;;;;;;;;13.70;99.90;;;;;;4996929;28;901;-57
2021/11/02 09:13:09;;;;;;;;;;;13.70;99.90;;;;;;4992403;28;1038;-57
2021/11/02 09:15:36;;;;;;;;;;;13.70;99.90;;;;;;4996523;28;939;-57
2021/11/02 09:18:04;;;;;;;;;;;13.70;99.90;;;;;;4994969;28;1964;-58
2021/11/02 09:20:30;;;;;;;;;;;13.70;99.90;;;;;;4996607;28;783;-57
2021/11/02 09:22:57;;;;;;;;;;;13.70;99.90;;;;;;4995131;28;809;-58
2021/11/02 09:25:23;;;;;;;;;;;13.70;99.90;;;;;;4995659;28;814;-57
2021/11/02 09:27:50;;;;;;;;;;;13.70;99.90;;;;;;4993249;28;2117;-57
2021/11/02 09:30:18;;;;;;;;;;;13.70;99.90;;;;;;4996409;28;885;-57
2021/11/02 09:32:47;;;;;;;;;;;13.70;99.90;;;;;;4996858;28;789;-58
2021/11/02 09:35:14;;;;;;;;;;;13.70;99.90;;;;;;4995456;28;1181;-58
2021/11/02 09:37:48;;;;;;;;;;;13.70;99.90;;;;;;4995851;28;1979;-57
2021/11/02 09:40:26;;;;;;;;;;;13.80;99.90;;;;;;4996474;28;858;-57
2021/11/02 09:43:07;;;;;;;;;;;13.80;99.90;;;;;;4996615;28;965;-58
2021/11/02 09:45:52;;;;;;;;;;;13.80;99.90;;;;;;4995967;28;1139;-58
2021/11/02 09:48:36;;;;;;;;;;;13.80;99.90;;;;;;4996583;28;877;-57
2021/11/02 09:51:20;;;;;;;;;;;13.80;99.90;;;;;;4996614;28;1273;-57
2021/11/02 09:54:00;;;;;;;;;;;13.80;99.90;;;;;;4996702;28;906;-58
2021/11/02 09:56:31;;;;;;;;;;;13.70;99.90;;;;;;4996262;28;2344;-57
2021/11/02 09:59:01;;;;;;;;;;;13.70;99.90;;;;;;4994577;28;865;-57
2021/11/02 10:01:48;;;;;;;;;;;13.70;99.90;;;;;;4996523;28;1282;-57
2021/11/02 10:04:24;;;;;;;;;;;13.70;99.90;;;;;;4997126;28;767;-56
2021/11/02 10:06:52;;;;;;;;;;;13.70;99.90;;;;;;4996997;28;877;-57
2021/11/02 10:09:18;;;;;;;;;;;13.70;99.90;;;;;;4980198;28;1371;-57
2021/11/02 10:12:17;;;;;;;;;;;13.70;99.90;;;;;;4996165;28;1256;-57
2021/11/02 10:14:48;;;;;;;;;;;13.70;99.90;;;;;;4965858;28;1371;-57
2021/11/02 10:17:38;;;;;;;;;;;13.80;99.90;;;;;;4996833;28;1914;-57
2021/11/02 10:20:09;;;;;;;;;;;13.70;99.90;;;;;;4996817;28;948;-57
2021/11/02 10:23:05;;;;;;;;;;;13.80;99.90;;;;;;5000509;28;1248;-57
2021/11/02 10:25:34;;;;;;;;;;;13.80;99.90;;;;;;4948414;28;1068;-58
2021/11/02 10:28:19;;;;;;;;;;;13.80;99.90;;;;;;5000794;28;1036;-57
2021/11/02 10:31:01;;;;;;;;;;;13.80;99.90;;;;;;4983793;28;961;-57
2021/11/02 10:33:32;;;;;;;;;;;13.80;99.90;;;;;;5000618;28;885;-57
2021/11/02 10:36:13;;;;;;;;;;;13.80;99.90;;;;;;4999826;28;841;-57
2021/11/02 10:38:52;;;;;;;;;;;13.90;99.90;;;;;;5000594;28;1123;-58
2021/11/02 10:41:20;;;;;;;;;;;13.90;99.90;;;;;;4998206;28;865;-57
2021/11/02 10:44:19;;;;;;;;;;;13.90;99.90;;;;;;4998151;28;990;-57
2021/11/02 10:46:56;;;;;;;;;;;14.00;99.90;;;;;;4998197;28;1257;-57
2021/11/02 10:49:22;;;;;;;;;;;14.00;99.90;;;;;;5000377;28;854;-57
2021/11/02 10:51:54;;;;;;;;;;;14.00;99.90;;;;;;5000647;28;923;-57
2021/11/02 10:54:24;;;;;;;;;;;14.10;99.90;;;;;;5000195;28;847;-57
2021/11/02 10:56:56;;;;;;;;;;;14.20;99.90;;;;;;5000165;28;1990;-57
2021/11/02 10:59:23;;;;;;;;;;;14.20;99.90;;;;;;4999877;28;745;-57
2021/11/02 11:01:51;;;;;;;;;;;14.30;99.90;;;;;;5017690;28;1153;-57
2021/11/02 11:04:18;;;;;;;;;;;14.40;99.90;;;;;;4999831;28;871;-57
2021/11/02 11:06:45;;;;;;;;;;;14.40;99.90;;;;;;5017936;28;897;-56
2021/11/02 11:09:12;;;;;;;;;;;14.40;99.90;;;;;;5017957;28;914;-56
2021/11/02 11:11:45;;;;;;;;;;;14.40;99.90;;;;;;5018001;28;858;-57
2021/11/02 11:14:13;;;;;;;;;;;14.40;99.90;;;;;;5017876;28;829;-56
2021/11/02 11:16:42;;;;;;;;;;;14.40;99.90;;;;;;5017726;28;1898;-57
2021/11/02 11:19:20;;;;;;;;;;;14.40;99.90;;;;;;4999234;28;765;-57
2021/11/02 11:21:46;;;;;;;;;;;14.40;99.90;;;;;;4999771;28;825;-57
2021/11/02 11:24:12;;;;;;;;;;;14.30;99.90;;;;;;4999802;28;845;-57
2021/11/02 11:26:43;;;;;;;;;;;14.40;99.90;;;;;;4999925;28;719;-57
2021/11/02 11:29:11;;;;;;;;;;;14.40;99.90;;;;;;4996776;28;1199;-56
2021/11/02 11:31:38;;;;;;;;;;;14.40;99.90;;;;;;4994860;28;997;-57
2021/11/02 11:34:04;;;;;;;;;;;14.40;99.90;;;;;;4999655;28;819;-57
2021/11/02 11:36:33;;;;;;;;;;;14.30;99.90;;;;;;4999350;28;1915;-57
2021/11/02 11:39:01;;;;;;;;;;;14.30;99.90;;;;;;4999770;28;838;-57
2021/11/02 11:41:27;;;;;;;;;;;14.30;99.90;;;;;;4999306;28;776;-57
2021/11/02 11:43:55;;;;;;;;;;;14.40;99.90;;;;;;4999287;28;821;-57
2021/11/02 11:46:24;;;;;;;;;;;14.30;99.90;;;;;;4999577;28;927;-57
2021/11/02 11:48:54;;;;;;;;;;;14.40;99.90;;;;;;4999524;28;868;-57
2021/11/02 11:51:22;;;;;;;;;;;14.40;99.90;;;;;;4998879;28;909;-57
2021/11/02 11:53:49;;;;;;;;;;;14.30;99.90;;;;;;4999330;28;806;-57
2021/11/02 11:56:16;;;;;;;;;;;14.30;99.90;;;;;;4998686;28;895;-57
2021/11/02 11:58:46;;;;;;;;;;;14.30;99.90;;;;;;4998434;28;869;-57
2021/11/02 12:01:21;;;;;;;;;;;14.30;99.90;;;;;;4998245;28;1111;-57
2021/11/02 12:03:53;;;;;;;;;;;14.30;99.90;;;;;;4998437;28;899;-57
2021/11/02 12:06:21;;;;;;;;;;;14.30;99.90;;;;;;4981774;28;857;-56
2021/11/02 12:08:53;;;;;;;;;;;14.30;99.90;;;;;;4997778;28;942;-57
2021/11/02 12:11:20;;;;;;;;;;;14.30;99.90;;;;;;4998003;28;1152;-57
2021/11/02 12:13:47;;;;;;;;;;;14.30;99.90;;;;;;4998072;28;778;-57
2021/11/02 12:16:27;;;;;;;;;;;14.20;99.90;;;;;;4998142;28;814;-57
2021/11/02 12:19:01;;;;;;;;;;;14.20;99.90;;;;;;4997599;28;1225;-57
2021/11/02 12:21:30;;;;;;;;;;;14.30;99.90;;;;;;4997927;28;796;-57
2021/11/02 12:23:59;;;;;;;;;;;14.30;99.90;;;;;;4997387;28;822;-57
2021/11/02 12:26:47;;;;;;;;;;;14.30;99.90;;;;;;4992589;28;1003;-57
2021/11/02 12:29:20;;;;;;;;;;;14.30;99.90;;;;;;4997216;28;1849;-57
2021/11/02 12:31:54;;;;;;;;;;;14.30;99.90;;;;;;4998060;28;947;-57
2021/11/02 12:34:20;;;;;;;;;;;14.30;99.90;;;;;;4997817;28;895;-57
2021/11/02 12:36:49;;;;;;;;;;;14.30;99.90;;;;;;4997314;28;1903;-57
2021/11/02 12:39:18;;;;;;;;;;;14.30;99.90;;;;;;4997720;28;954;-57
2021/11/02 12:41:48;;;;;;;;;;;14.30;99.90;;;;;;4995964;28;1073;-57
2021/11/02 12:44:15;;;;;;;;;;;14.30;99.90;;;;;;4996988;28;779;-57
2021/11/02 12:46:44;;;;;;;;;;;14.30;99.90;;;;;;4980764;28;918;-57
2021/11/02 12:49:13;;;;;;;;;;;14.30;99.90;;;;;;4997156;28;961;-57
2021/11/02 12:51:45;;;;;;;;;;;14.30;99.90;;;;;;4997450;28;914;-57
2021/11/02 12:54:13;;;;;;;;;;;14.30;99.90;;;;;;4981303;28;988;-57
2021/11/02 12:56:41;;;;;;;;;;;14.30;99.90;;;;;;4996756;28;1964;-57
2021/11/02 12:59:18;;;;;;;;;;;14.30;99.90;;;;;;4995966;28;853;-57
2021/11/02 13:01:45;;;;;;;;;;;14.30;99.90;;;;;;4997773;28;916;-56
2021/11/02 13:04:12;;;;;;;;;;;14.30;99.90;;;;;;4998182;28;798;-57
2021/11/02 13:06:39;;;;;;;;;;;14.30;99.90;;;;;;4998043;28;765;-57
2021/11/02 13:09:06;;;;;;;;;;;14.30;99.90;;;;;;4998093;28;863;-57
2021/11/02 13:11:34;;;;;;;;;;;14.30;99.90;;;;;;4997060;28;875;-57
2021/11/02 13:14:07;;;;;;;;;;;14.30;99.90;;;;;;4997551;28;857;-57
2021/11/02 13:16:53;;;;;;;;;;;14.30;99.90;;;;;;4997840;28;1957;-57
2021/11/02 13:19:21;;;;;;;;;;;14.30;99.90;;;;;;4997661;28;1305;-57
2021/11/02 13:21:48;;;;;;;;;;;14.30;99.90;;;;;;4997417;28;1151;-57
2021/11/02 13:24:19;;;;;;;;;;;14.30;99.90;;;;;;4997716;28;879;-57
2021/11/02 13:26:46;;;;;;;;;;;14.30;99.90;;;;;;4997333;28;967;-57
2021/11/02 13:29:13;;;;;;;;;;;14.30;99.90;;;;;;5003719;28;1286;-57
2021/11/02 13:31:40;;;;;;;;;;;14.30;99.90;;;;;;4997487;28;855;-57
2021/11/02 13:34:08;;;;;;;;;;;14.30;99.90;;;;;;4997609;28;884;-57
2021/11/02 13:36:34;;;;;;;;;;;14.30;99.90;;;;;;4997296;28;1894;-57
2021/11/02 13:39:05;;;;;;;;;;;14.20;99.90;;;;;;4997519;28;847;-56
2021/11/02 13:41:38;;;;;;;;;;;14.20;99.90;;;;;;4997432;28;955;-56
2021/11/02 13:44:05;;;;;;;;;;;14.20;99.90;;;;;;4994107;28;858;-57
2021/11/02 13:46:33;;;;;;;;;;;14.20;99.90;;;;;;4997446;28;1020;-57
2021/11/02 13:49:07;;;;;;;;;;;14.20;99.90;;;;;;4997402;28;822;-57
2021/11/02 13:51:33;;;;;;;;;;;14.20;99.90;;;;;;4995126;28;1483;-57
2021/11/02 13:54:00;;;;;;;;;;;14.20;99.90;;;;;;4997185;28;902;-57
2021/11/02 13:56:28;;;;;;;;;;;14.20;99.90;;;;;;4999012;28;845;-57
2021/11/02 13:58:55;;;;;;;;;;;14.20;99.90;;;;;;5000937;28;1906;-57
2021/11/02 14:01:28;;;;;;;;;;;14.20;99.90;;;;;;5000105;28;1249;-57
2021/11/02 14:04:06;;;;;;;;;;;14.20;99.90;;;;;;5000785;28;1030;-57
2021/11/02 14:06:34;;;;;;;;;;;14.20;99.90;;;;;;5000319;28;818;-56
2021/11/02 14:09:01;;;;;;;;;;;14.20;99.90;;;;;;5000313;28;764;-57
2021/11/02 14:11:34;;;;;;;;;;;14.20;99.90;;;;;;5000250;28;1033;-57
2021/11/02 14:14:01;;;;;;;;;;;14.20;99.90;;;;;;4983536;28;1087;-57
2021/11/02 14:16:45;;;;;;;;;;;14.20;99.90;;;;;;5000204;28;792;-57
2021/11/02 14:19:34;;;;;;;;;;;14.20;99.90;;;;;;5000668;28;906;-57
2021/11/02 14:22:02;;;;;;;;;;;14.20;99.90;;;;;;4992639;28;1429;-57
2021/11/02 14:24:33;;;;;;;;;;;14.20;99.90;;;;;;5000053;28;1034;-57
2021/11/02 14:26:59;;;;;;;;;;;14.20;99.90;;;;;;4999801;28;818;-56
2021/11/02 14:29:54;;;;;;;;;;;14.20;99.90;;;;;;4999604;28;842;-57
2021/11/02 14:32:43;;;;;;;;;;;14.20;99.90;;;;;;4982544;28;1218;-57
2021/11/02 14:35:10;;;;;;;;;;;14.20;99.90;;;;;;4990747;28;1475;-56
2021/11/02 14:37:45;;;;;;;;;;;14.20;99.90;;;;;;4997808;28;1984;-57
2021/11/02 14:40:25;;;;;;;;;;;14.10;99.90;;;;;;4999904;28;846;-57
2021/11/02 14:42:54;;;;;;;;;;;14.10;99.90;;;;;;4999789;28;771;-56
2021/11/02 14:45:37;;;;;;;;;;;14.10;99.90;;;;;;4999494;28;874;-57
2021/11/02 14:48:23;;;;;;;;;;;14.10;99.90;;;;;;4998422;28;854;-57
2021/11/02 14:50:50;;;;;;;;;;;14.10;99.90;;;;;;4989012;28;1377;-57
2021/11/02 14:53:28;;;;;;;;;;;14.10;99.90;;;;;;4999755;28;879;-57
2021/11/02 14:56:04;;;;;;;;;;;14.10;99.90;;;;;;4999657;28;897;-57
2021/11/02 14:58:39;;;;;;;;;;;14.10;99.90;;;;;;4999420;28;1969;-56
2021/11/02 15:01:25;;;;;;;;;;;14.10;99.90;;;;;;5008339;28;1240;-56
2021/11/02 15:03:52;;;;;;;;;;;14.10;99.90;;;;;;5010866;28;1133;-57
2021/11/02 15:06:19;;;;;;;;;;;14.10;99.90;;;;;;5017829;28;948;-57
2021/11/02 15:08:46;;;;;;;;;;;14.10;99.90;;;;;;5017813;28;827;-57
2021/11/02 15:11:16;;;;;;;;;;;14.10;99.90;;;;;;5017572;28;906;-57
2021/11/02 15:13:46;;;;;;;;;;;14.10;99.90;;;;;;5000250;28;1653;-57
2021/11/02 15:16:12;;;;;;;;;;;14.00;99.90;;;;;;4982693;28;1981;-56
2021/11/02 15:18:46;;;;;;;;;;;14.00;99.90;;;;;;4999642;28;1907;-56
2021/11/02 15:21:17;;;;;;;;;;;14.10;99.90;;;;;;4999997;28;924;-56
2021/11/02 15:23:47;;;;;;;;;;;14.00;99.90;;;;;;4999981;28;879;-57
2021/11/02 15:26:14;;;;;;;;;;;14.00;99.90;;;;;;4998369;28;1291;-56
2021/11/02 15:28:41;;;;;;;;;;;14.00;99.90;;;;;;4999225;28;968;-56
2021/11/02 15:31:07;;;;;;;;;;;14.00;99.90;;;;;;4998785;28;782;-57
2021/11/02 15:33:33;;;;;;;;;;;14.00;99.90;;;;;;4999110;28;828;-57
2021/11/02 15:36:09;;;;;;;;;;;14.00;99.90;;;;;;4999471;28;877;-57
2021/11/02 15:38:36;;;;;;;;;;;14.00;99.90;;;;;;4999419;28;1902;-57
2021/11/02 15:41:15;;;;;;;;;;;14.00;99.90;;;;;;4998468;28;1045;-57
2021/11/02 15:43:55;;;;;;;;;;;14.00;99.90;;;;;;4999487;28;927;-56
2021/11/02 15:46:23;;;;;;;;;;;14.00;99.90;;;;;;4999018;28;951;-57
2021/11/02 15:48:50;;;;;;;;;;;13.90;99.90;;;;;;4999302;28;888;-57
2021/11/02 15:51:17;;;;;;;;;;;13.90;99.90;;;;;;4999516;28;857;-57
2021/11/02 15:53:43;;;;;;;;;;;13.90;99.90;;;;;;5011411;28;955;-57
2021/11/02 15:56:09;;;;;;;;;;;13.90;99.90;;;;;;4998969;28;762;-57
2021/11/02 15:58:35;;;;;;;;;;;13.90;99.90;;;;;;4999056;28;1961;-57
2021/11/02 16:01:01;;;;;;;;;;;13.90;99.90;;;;;;5012705;28;1166;-57
2021/11/02 16:03:34;;;;;;;;;;;13.90;99.90;;;;;;5017134;28;1046;-57
2021/11/02 16:06:02;;;;;;;;;;;13.90;99.90;;;;;;5016829;28;906;-57
2021/11/02 16:08:29;;;;;;;;;;;13.90;99.90;;;;;;5000050;28;766;-57
2021/11/02 16:11:03;;;;;;;;;;;13.90;99.90;;;;;;5017003;28;825;-56
2021/11/02 16:13:29;;;;;;;;;;;13.90;99.90;;;;;;4999703;28;855;-56
2021/11/02 16:15:57;;;;;;;;;;;13.90;99.90;;;;;;5016842;28;852;-57
2021/11/02 16:18:25;;;;;;;;;;;13.80;99.90;;;;;;5015910;28;1914;-57
2021/11/02 16:20:51;;;;;;;;;;;13.80;99.90;;;;;;5016794;28;1042;-57
2021/11/02 16:23:19;;;;;;;;;;;13.80;99.90;;;;;;5016809;28;775;-57
2021/11/02 16:25:47;;;;;;;;;;;13.80;99.90;;;;;;5016392;28;826;-57
2021/11/02 16:28:14;;;;;;;;;;;13.80;99.90;;;;;;5016697;28;815;-57
2021/11/02 16:30:40;;;;;;;;;;;13.80;99.90;;;;;;5005747;28;1045;-57
2021/11/02 16:33:07;;;;;;;;;;;13.80;99.90;;;;;;4998463;28;853;-57
2021/11/02 16:35:35;;;;;;;;;;;13.80;99.90;;;;;;4998647;28;815;-57
2021/11/02 16:38:19;;;;;;;;;;;13.80;99.90;;;;;;4998083;28;1903;-57
2021/11/02 16:40:55;;;;;;;;;;;13.80;99.90;;;;;;4998113;28;899;-56
2021/11/02 16:43:28;;;;;;;;;;;13.80;99.90;;;;;;4997869;28;829;-56
2021/11/02 16:45:54;;;;;;;;;;;13.80;99.90;;;;;;4998054;28;821;-57
2021/11/02 16:48:32;;;;;;;;;;;13.80;99.90;;;;;;4998170;28;809;-57
2021/11/02 16:50:57;;;;;;;;;;;13.80;99.90;;;;;;4998337;28;964;-57
2021/11/02 16:53:24;;;;;;;;;;;13.80;99.90;;;;;;4997040;28;1417;-57
2021/11/02 16:55:51;;;;;;;;;;;13.80;99.90;;;;;;4993529;28;910;-57
2021/11/02 16:58:23;;;;;;;;;;;13.80;99.90;;;;;;4980757;28;1906;-57
2021/11/02 17:00:49;;;;;;;;;;;13.80;99.90;;;;;;4980523;28;1327;-56
2021/11/02 17:03:24;;;;;;;;;;;13.80;99.90;;;;;;4997220;28;870;-57
2021/11/02 17:05:51;;;;;;;;;;;13.70;99.90;;;;;;4978278;28;1227;-57
2021/11/02 17:08:18;;;;;;;;;;;13.70;99.90;;;;;;4996901;28;887;-57
2021/11/02 17:10:49;;;;;;;;;;;13.70;99.90;;;;;;4980515;28;1016;-57
2021/11/02 17:13:33;;;;;;;;;;;13.70;99.90;;;;;;4997430;28;830;-57
2021/11/02 17:16:01;;;;;;;;;;;13.70;99.90;;;;;;4996550;28;869;-57
2021/11/02 17:18:28;;;;;;;;;;;13.70;99.90;;;;;;4994135;28;1898;-57
2021/11/02 17:21:01;;;;;;;;;;;13.70;99.90;;;;;;4993676;28;830;-57
2021/11/02 17:23:27;;;;;;;;;;;13.70;99.90;;;;;;4995701;28;1239;-57
2021/11/02 17:25:53;;;;;;;;;;;13.70;99.90;;;;;;4996491;28;1513;-57
2021/11/02 17:28:20;;;;;;;;;;;13.70;99.90;;;;;;4996526;28;1013;-57
2021/11/02 17:30:46;;;;;;;;;;;13.70;99.90;;;;;;4996261;28;903;-57
2021/11/02 17:33:12;;;;;;;;;;;13.70;99.90;;;;;;4996641;28;830;-57
2021/11/02 17:35:40;;;;;;;;;;;13.70;99.90;;;;;;4996768;28;1063;-57
2021/11/02 17:38:06;;;;;;;;;;;13.70;99.90;;;;;;4993615;28;1910;-57
2021/11/02 17:40:35;;;;;;;;;;;13.70;99.90;;;;;;4996444;28;833;-57
2021/11/02 17:43:01;;;;;;;;;;;13.70;99.90;;;;;;4992885;28;823;-57
2021/11/02 17:45:28;;;;;;;;;;;13.70;99.90;;;;;;4993008;28;884;-57
2021/11/02 17:47:55;;;;;;;;;;;13.70;99.90;;;;;;4993494;28;861;-57
2021/11/02 17:50:24;;;;;;;;;;;13.60;99.90;;;;;;4993045;28;896;-57
2021/11/02 17:52:50;;;;;;;;;;;13.60;99.90;;;;;;4979852;28;889;-57
2021/11/02 17:55:16;;;;;;;;;;;13.60;99.90;;;;;;4976328;28;860;-57
2021/11/02 17:57:46;;;;;;;;;;;13.60;99.90;;;;;;4996491;28;1907;-57
2021/11/02 18:00:13;;;;;;;;;;;13.60;99.90;;;;;;4995744;28;1012;-59
2021/11/02 18:02:40;;;;;;;;;;;13.60;99.90;;;;;;4996665;28;794;-56
2021/11/02 18:05:07;;;;;;;;;;;13.60;99.90;;;;;;4996584;28;826;-57
2021/11/02 18:07:33;;;;;;;;;;;13.60;99.90;;;;;;4991880;28;920;-57
2021/11/02 18:10:05;;;;;;;;;;;13.60;99.90;;;;;;4991679;28;778;-57
2021/11/02 18:12:32;;;;;;;;;;;13.60;99.90;;;;;;4995571;28;869;-57
2021/11/02 18:14:59;;;;;;;;;;;13.60;99.90;;;;;;4995763;28;1160;-57
2021/11/02 18:17:28;;;;;;;;;;;13.60;99.90;;;;;;4995794;28;1969;-57
2021/11/02 18:19:55;;;;;;;;;;;13.60;99.90;;;;;;4996294;28;747;-57
2021/11/02 18:22:21;;;;;;;;;;;13.60;99.90;;;;;;4996119;28;826;-53
2021/11/02 18:24:49;;;;;;;;;;;13.70;99.90;;;;;;4979567;28;866;-53
2021/11/02 18:27:18;;;;;;;;;;;13.70;99.90;;;;;;4992642;28;1407;-53
2021/11/02 18:29:45;;;;;;;;;;;13.70;99.90;;;;;;4995784;28;758;-53
2021/11/02 18:32:12;;;;;;;;;;;13.70;99.90;;;;;;4995899;28;1005;-54
2021/11/02 18:34:38;;;;;;;;;;;13.70;99.90;;;;;;4996264;28;870;-54
2021/11/02 18:37:04;;;;;;;;;;;13.60;99.90;;;;;;4996055;28;830;-53
2021/11/02 18:39:31;;;;;;;;;;;13.60;99.90;;;;;;4995884;28;1906;-50
2021/11/02 18:41:57;;;;;;;;;;;13.60;99.90;;;;;;4996915;28;801;-53
2021/11/02 18:44:23;;;;;;;;;;;13.60;99.90;;;;;;4999908;28;790;-54
2021/11/02 18:46:49;;;;;;;;;;;13.60;99.90;;;;;;4999739;28;1003;-53
2021/11/02 18:49:16;;;;;;;;;;;13.60;99.90;;;;;;4994928;28;1121;-51
2021/11/02 18:51:42;;;;;;;;;;;13.60;99.90;;;;;;4999687;28;890;-51
2021/11/02 18:54:08;;;;;;;;;;;13.60;99.90;;;;;;4999746;28;845;-51
2021/11/02 18:56:34;;;;;;;;;;;13.60;99.90;;;;;;4999502;28;845;-51
2021/11/02 18:59:00;;;;;;;;;;;13.60;99.90;;;;;;4999289;28;1970;-51
2021/11/02 19:01:26;;;;;;;;;;;13.60;99.90;;;;;;4983464;28;1259;-51
2021/11/02 19:03:54;;;;;;;;;;;13.60;99.90;;;;;;4999335;28;825;-51
2021/11/02 19:06:21;;;;;;;;;;;13.60;99.90;;;;;;4999474;28;805;-51
2021/11/02 19:08:47;;;;;;;;;;;13.50;99.90;;;;;;4999462;28;814;-51
2021/11/02 19:11:13;;;;;;;;;;;13.60;99.90;;;;;;4998874;28;1373;-51
2021/11/02 19:13:41;;;;;;;;;;;13.50;99.90;;;;;;4998306;28;854;-51
2021/11/02 19:16:07;;;;;;;;;;;13.50;99.90;;;;;;4997865;28;984;-51
2021/11/02 19:18:34;;;;;;;;;;;13.50;99.90;;;;;;4999199;28;1907;-50
2021/11/02 19:21:00;;;;;;;;;;;13.50;99.90;;;;;;4999250;28;942;-51
2021/11/02 19:23:26;;;;;;;;;;;13.50;99.90;;;;;;4982446;28;914;-51
2021/11/02 19:25:51;;;;;;;;;;;13.50;99.90;;;;;;4998998;28;775;-51
2021/11/02 19:28:18;;;;;;;;;;;13.50;99.90;;;;;;4999111;28;859;-53
2021/11/02 19:30:44;;;;;;;;;;;13.50;99.90;;;;;;4982622;28;886;-53
2021/11/02 19:33:11;;;;;;;;;;;13.50;99.90;;;;;;4999046;28;787;-53
2021/11/02 19:35:40;;;;;;;;;;;13.50;99.90;;;;;;4980096;28;1268;-53
2021/11/02 19:38:07;;;;;;;;;;;13.50;99.90;;;;;;4998492;28;1915;-53
2021/11/02 19:40:34;;;;;;;;;;;13.50;99.90;;;;;;4998257;28;969;-53